Main page
METAR-TAF:

METAR-TAF

Airports :

Balıkesir Airport

Balikesir, Turkey

latitude: 39-37N, longitude: 027-55E, elevation: 101 m

Current weather observation

The report was made 1 hour and 5 minutes ago, at 02:50 UTC
Wind 1 kt from variable directions
Temperature 13°C
Humidity 88%
Pressure 1019 hPa
Visibility 10 km or more
Scattered clouds at a height of 3500 ft
Broken clouds at a height of 10000 ft

METAR: LTBF 260250Z VRB01KT 9999 SCT035 BKN100 13/11 Q1019 NOSIG

Time: 06:55 (03:55 UTC)

Forecast

The report was made 2 hours and 15 minutes ago, at 01:40 UTC
Forecast valid from 26 at 03 UTC to 26 at 12 UTC
Wind 2 kt from variable directions
Visibility 10 km or more
Scattered clouds at a height of 3500 ft
Broken clouds at a height of 10000 ft
Temporary
from 26 at 05 UTC to 26 at 08 UTC
light rain showers

TAF: LTBF 260140Z 2603/2612 VRB02KT 9999 SCT035 BKN100 TEMPO 2605/2608 -SHRA

Weather observations and forecasts of more than 4000 airports (METAR and TAF reports).

The available stations are represented by yellow and red dots on the map.

Hover mouse over dot to see the name of the station.

Then click to see weather observations and forecasts.

To change the map : click on the green buttons with a black cross to zoom in, on the green button with a dash to zoom out, or on the green arrows for adjacent maps.


METAR-TAF: